sensor_id;sensor_type;location;lat;lon;timestamp;temperature;humidity
75217;HTU21D;63800;51.972;5.682;2023-03-20T00:00:24;9.29;96.58
75217;HTU21D;63800;51.972;5.682;2023-03-20T00:02:50;9.11;97.95
75217;HTU21D;63800;51.972;5.682;2023-03-20T00:05:19;9.09;98.23
75217;HTU21D;63800;51.972;5.682;2023-03-20T00:07:46;9.16;97.94
75217;HTU21D;63800;51.972;5.682;2023-03-20T00:10:12;9.08;98.13
75217;HTU21D;63800;51.972;5.682;2023-03-20T00:12:38;9.22;96.59
75217;HTU21D;63800;51.972;5.682;2023-03-20T00:15:06;9.06;97.04
75217;HTU21D;63800;51.972;5.682;2023-03-20T00:17:32;9.16;96.60
75217;HTU21D;63800;51.972;5.682;2023-03-20T00:19:57;9.34;94.46
75217;HTU21D;63800;51.972;5.682;2023-03-20T00:22:22;9.00;95.79
75217;HTU21D;63800;51.972;5.682;2023-03-20T00:24:48;8.94;96.73
75217;HTU21D;63800;51.972;5.682;2023-03-20T00:27:15;8.93;96.83
75217;HTU21D;63800;51.972;5.682;2023-03-20T00:29:42;9.18;94.72
75217;HTU21D;63800;51.972;5.682;2023-03-20T00:32:11;8.77;97.93
75217;HTU21D;63800;51.972;5.682;2023-03-20T00:34:37;8.87;97.34
75217;HTU21D;63800;51.972;5.682;2023-03-20T00:37:03;9.00;96.22
75217;HTU21D;63800;51.972;5.682;2023-03-20T00:39:29;8.83;97.98
75217;HTU21D;63800;51.972;5.682;2023-03-20T00:42:06;8.89;97.36
75217;HTU21D;63800;51.972;5.682;2023-03-20T00:44:51;8.94;98.12
75217;HTU21D;63800;51.972;5.682;2023-03-20T00:47:20;8.66;99.64
75217;HTU21D;63800;51.972;5.682;2023-03-20T00:49:49;8.96;97.30
75217;HTU21D;63800;51.972;5.682;2023-03-20T00:52:16;8.91;98.22
75217;HTU21D;63800;51.972;5.682;2023-03-20T00:54:42;8.79;99.39
75217;HTU21D;63800;51.972;5.682;2023-03-20T00:57:13;8.75;100.56
75217;HTU21D;63800;51.972;5.682;2023-03-20T00:59:46;8.68;100.91
75217;HTU21D;63800;51.972;5.682;2023-03-20T01:02:15;8.83;98.06
75217;HTU21D;63800;51.972;5.682;2023-03-20T01:04:41;8.89;98.25
75217;HTU21D;63800;51.972;5.682;2023-03-20T01:07:11;8.80;99.78
75217;HTU21D;63800;51.972;5.682;2023-03-20T01:09:37;8.89;98.55
75217;HTU21D;63800;51.972;5.682;2023-03-20T01:12:03;8.76;98.58
75217;HTU21D;63800;51.972;5.682;2023-03-20T01:14:29;8.97;96.55
75217;HTU21D;63800;51.972;5.682;2023-03-20T01:16:55;8.67;97.86
75217;HTU21D;63800;51.972;5.682;2023-03-20T01:19:20;8.90;96.97
75217;HTU21D;63800;51.972;5.682;2023-03-20T01:21:46;8.96;95.93
75217;HTU21D;63800;51.972;5.682;2023-03-20T01:24:12;8.96;95.98
75217;HTU21D;63800;51.972;5.682;2023-03-20T01:26:39;8.94;95.94
75217;HTU21D;63800;51.972;5.682;2023-03-20T01:29:22;8.96;95.35
75217;HTU21D;63800;51.972;5.682;2023-03-20T01:31:49;8.80;96.39
75217;HTU21D;63800;51.972;5.682;2023-03-20T01:34:15;8.75;95.94
75217;HTU21D;63800;51.972;5.682;2023-03-20T01:36:54;8.62;91.87
75217;HTU21D;63800;51.972;5.682;2023-03-20T01:39:21;8.59;87.16
75217;HTU21D;63800;51.972;5.682;2023-03-20T01:41:50;8.89;85.93
75217;HTU21D;63800;51.972;5.682;2023-03-20T01:44:22;8.88;83.95
75217;HTU21D;63800;51.972;5.682;2023-03-20T01:46:51;8.60;83.72
75217;HTU21D;63800;51.972;5.682;2023-03-20T01:51:46;8.82;85.35
75217;HTU21D;63800;51.972;5.682;2023-03-20T01:56:49;8.83;84.83
75217;HTU21D;63800;51.972;5.682;2023-03-20T01:59:26;8.60;86.81
75217;HTU21D;63800;51.972;5.682;2023-03-20T02:01:53;8.64;87.10
75217;HTU21D;63800;51.972;5.682;2023-03-20T02:04:24;8.62;86.29
75217;HTU21D;63800;51.972;5.682;2023-03-20T02:06:50;8.79;85.09
75217;HTU21D;63800;51.972;5.682;2023-03-20T02:09:16;8.50;86.00
75217;HTU21D;63800;51.972;5.682;2023-03-20T02:11:42;8.86;83.63
75217;HTU21D;63800;51.972;5.682;2023-03-20T02:14:10;8.81;81.89
75217;HTU21D;63800;51.972;5.682;2023-03-20T02:16:36;8.78;81.74
75217;HTU21D;63800;51.972;5.682;2023-03-20T02:19:03;8.74;82.87
75217;HTU21D;63800;51.972;5.682;2023-03-20T02:30:18;8.58;83.81
75217;HTU21D;63800;51.972;5.682;2023-03-20T02:46:38;8.22;89.50
75217;HTU21D;63800;51.972;5.682;2023-03-20T03:00:06;8.47;90.40
75217;HTU21D;63800;51.972;5.682;2023-03-20T03:02:52;8.43;90.15
75217;HTU21D;63800;51.972;5.682;2023-03-20T03:05:24;8.43;91.28
75217;HTU21D;63800;51.972;5.682;2023-03-20T03:07:55;8.42;90.89
75217;HTU21D;63800;51.972;5.682;2023-03-20T03:10:24;7.87;93.59
75217;HTU21D;63800;51.972;5.682;2023-03-20T03:12:53;7.98;93.69
75217;HTU21D;63800;51.972;5.682;2023-03-20T03:15:41;7.85;95.65
75217;HTU21D;63800;51.972;5.682;2023-03-20T03:18:19;8.02;94.98
75217;HTU21D;63800;51.972;5.682;2023-03-20T03:20:47;7.88;96.65
75217;HTU21D;63800;51.972;5.682;2023-03-20T03:24:02;7.73;97.92
75217;HTU21D;63800;51.972;5.682;2023-03-20T03:26:13;7.93;96.81
75217;HTU21D;63800;51.972;5.682;2023-03-20T03:28:46;7.81;96.98
75217;HTU21D;63800;51.972;5.682;2023-03-20T03:31:15;7.55;98.71
75217;HTU21D;63800;51.972;5.682;2023-03-20T03:33:45;7.61;97.61
75217;HTU21D;63800;51.972;5.682;2023-03-20T03:38:57;7.52;96.52
75217;HTU21D;63800;51.972;5.682;2023-03-20T03:41:44;7.43;97.61
75217;HTU21D;63800;51.972;5.682;2023-03-20T03:44:30;7.56;95.48
75217;HTU21D;63800;51.972;5.682;2023-03-20T03:49:48;7.87;92.90
75217;HTU21D;63800;51.972;5.682;2023-03-20T03:52:18;7.73;93.39
75217;HTU21D;63800;51.972;5.682;2023-03-20T03:54:50;7.53;94.66
75217;HTU21D;63800;51.972;5.682;2023-03-20T03:57:21;7.69;93.86
75217;HTU21D;63800;51.972;5.682;2023-03-20T03:59:49;7.43;96.29
75217;HTU21D;63800;51.972;5.682;2023-03-20T04:02:17;7.28;96.98
75217;HTU21D;63800;51.972;5.682;2023-03-20T04:04:47;7.13;98.22
75217;HTU21D;63800;51.972;5.682;2023-03-20T04:07:14;7.02;99.23
75217;HTU21D;63800;51.972;5.682;2023-03-20T04:09:39;7.15;98.53
75217;HTU21D;63800;51.972;5.682;2023-03-20T04:12:05;7.19;98.07
75217;HTU21D;63800;51.972;5.682;2023-03-20T04:14:33;7.14;98.33
75217;HTU21D;63800;51.972;5.682;2023-03-20T04:16:59;7.22;98.00
75217;HTU21D;63800;51.972;5.682;2023-03-20T04:19:24;7.35;96.77
75217;HTU21D;63800;51.972;5.682;2023-03-20T04:21:49;7.29;97.07
75217;HTU21D;63800;51.972;5.682;2023-03-20T04:24:15;7.23;97.20
75217;HTU21D;63800;51.972;5.682;2023-03-20T04:26:41;7.28;97.13
75217;HTU21D;63800;51.972;5.682;2023-03-20T04:29:06;7.24;97.25
75217;HTU21D;63800;51.972;5.682;2023-03-20T04:31:32;7.14;97.71
75217;HTU21D;63800;51.972;5.682;2023-03-20T04:33:57;7.27;97.40
75217;HTU21D;63800;51.972;5.682;2023-03-20T04:36:23;7.49;95.86
75217;HTU21D;63800;51.972;5.682;2023-03-20T04:38:48;7.64;94.67
75217;HTU21D;63800;51.972;5.682;2023-03-20T04:41:14;7.24;97.49
75217;HTU21D;63800;51.972;5.682;2023-03-20T04:43:39;7.45;96.65
75217;HTU21D;63800;51.972;5.682;2023-03-20T04:46:05;7.34;97.97
75217;HTU21D;63800;51.972;5.682;2023-03-20T04:48:31;7.27;98.51
75217;HTU21D;63800;51.972;5.682;2023-03-20T04:50:56;7.16;98.89
75217;HTU21D;63800;51.972;5.682;2023-03-20T04:53:22;7.46;96.04
75217;HTU21D;63800;51.972;5.682;2023-03-20T04:55:47;7.40;96.87
75217;HTU21D;63800;51.972;5.682;2023-03-20T04:58:15;7.53;95.81
75217;HTU21D;63800;51.972;5.682;2023-03-20T05:00:40;7.04;98.54
75217;HTU21D;63800;51.972;5.682;2023-03-20T05:03:06;7.23;97.21
75217;HTU21D;63800;51.972;5.682;2023-03-20T05:05:31;7.10;96.98
75217;HTU21D;63800;51.972;5.682;2023-03-20T05:07:58;7.04;97.11
75217;HTU21D;63800;51.972;5.682;2023-03-20T05:10:23;7.29;95.88
75217;HTU21D;63800;51.972;5.682;2023-03-20T05:12:49;7.15;95.50
75217;HTU21D;63800;51.972;5.682;2023-03-20T05:15:15;7.13;95.04
75217;HTU21D;63800;51.972;5.682;2023-03-20T05:17:40;7.01;96.52
75217;HTU21D;63800;51.972;5.682;2023-03-20T05:20:06;6.89;96.70
75217;HTU21D;63800;51.972;5.682;2023-03-20T05:22:32;6.79;97.87
75217;HTU21D;63800;51.972;5.682;2023-03-20T05:24:57;6.99;96.39
75217;HTU21D;63800;51.972;5.682;2023-03-20T05:27:22;7.00;96.51
75217;HTU21D;63800;51.972;5.682;2023-03-20T05:29:48;6.87;97.23
75217;HTU21D;63800;51.972;5.682;2023-03-20T05:32:13;6.96;96.22
75217;HTU21D;63800;51.972;5.682;2023-03-20T05:34:39;6.88;96.81
75217;HTU21D;63800;51.972;5.682;2023-03-20T05:37:05;7.14;95.52
75217;HTU21D;63800;51.972;5.682;2023-03-20T05:39:30;6.98;96.13
75217;HTU21D;63800;51.972;5.682;2023-03-20T05:41:56;7.04;96.41
75217;HTU21D;63800;51.972;5.682;2023-03-20T05:44:21;6.76;97.90
75217;HTU21D;63800;51.972;5.682;2023-03-20T05:46:46;6.84;96.50
75217;HTU21D;63800;51.972;5.682;2023-03-20T05:49:12;6.83;96.39
75217;HTU21D;63800;51.972;5.682;2023-03-20T05:51:37;6.87;96.75
75217;HTU21D;63800;51.972;5.682;2023-03-20T05:54:03;6.91;96.32
75217;HTU21D;63800;51.972;5.682;2023-03-20T05:56:29;7.02;95.55
75217;HTU21D;63800;51.972;5.682;2023-03-20T05:58:54;7.07;94.43
75217;HTU21D;63800;51.972;5.682;2023-03-20T06:01:20;6.85;96.20
75217;HTU21D;63800;51.972;5.682;2023-03-20T06:03:48;6.86;95.35
75217;HTU21D;63800;51.972;5.682;2023-03-20T06:06:15;7.11;94.39
75217;HTU21D;63800;51.972;5.682;2023-03-20T06:08:41;6.98;95.43
75217;HTU21D;63800;51.972;5.682;2023-03-20T06:11:07;7.04;93.95
75217;HTU21D;63800;51.972;5.682;2023-03-20T06:13:32;6.85;96.01
75217;HTU21D;63800;51.972;5.682;2023-03-20T06:15:58;6.83;96.77
75217;HTU21D;63800;51.972;5.682;2023-03-20T06:18:23;7.05;95.14
75217;HTU21D;63800;51.972;5.682;2023-03-20T06:20:53;7.18;94.20
75217;HTU21D;63800;51.972;5.682;2023-03-20T06:23:20;6.78;97.23
75217;HTU21D;63800;51.972;5.682;2023-03-20T06:25:46;6.97;96.40
75217;HTU21D;63800;51.972;5.682;2023-03-20T06:28:11;7.05;95.60
75217;HTU21D;63800;51.972;5.682;2023-03-20T06:30:36;6.82;97.35
75217;HTU21D;63800;51.972;5.682;2023-03-20T06:33:02;6.86;97.07
75217;HTU21D;63800;51.972;5.682;2023-03-20T06:35:30;7.00;96.95
75217;HTU21D;63800;51.972;5.682;2023-03-20T06:37:56;6.81;97.92
75217;HTU21D;63800;51.972;5.682;2023-03-20T06:40:22;6.80;98.55
75217;HTU21D;63800;51.972;5.682;2023-03-20T06:42:48;7.08;96.17
75217;HTU21D;63800;51.972;5.682;2023-03-20T06:45:13;6.98;97.26
75217;HTU21D;63800;51.972;5.682;2023-03-20T06:47:38;6.94;97.27
75217;HTU21D;63800;51.972;5.682;2023-03-20T06:50:05;7.15;95.65
75217;HTU21D;63800;51.972;5.682;2023-03-20T06:52:30;7.03;96.94
75217;HTU21D;63800;51.972;5.682;2023-03-20T06:54:56;7.15;96.39
75217;HTU21D;63800;51.972;5.682;2023-03-20T06:57:22;7.30;95.64
75217;HTU21D;63800;51.972;5.682;2023-03-20T06:59:48;6.88;98.00
75217;HTU21D;63800;51.972;5.682;2023-03-20T07:02:14;7.03;97.15
75217;HTU21D;63800;51.972;5.682;2023-03-20T07:04:40;7.23;95.26
75217;HTU21D;63800;51.972;5.682;2023-03-20T07:07:06;7.04;96.86
75217;HTU21D;63800;51.972;5.682;2023-03-20T07:09:31;7.09;96.61
75217;HTU21D;63800;51.972;5.682;2023-03-20T07:11:58;7.07;97.26
75217;HTU21D;63800;51.972;5.682;2023-03-20T07:14:24;7.07;96.63
75217;HTU21D;63800;51.972;5.682;2023-03-20T07:16:49;7.15;95.81
75217;HTU21D;63800;51.972;5.682;2023-03-20T07:19:16;7.40;94.46
75217;HTU21D;63800;51.972;5.682;2023-03-20T07:21:42;7.17;95.78
75217;HTU21D;63800;51.972;5.682;2023-03-20T07:24:07;7.14;95.97
75217;HTU21D;63800;51.972;5.682;2023-03-20T07:26:33;6.94;97.72
75217;HTU21D;63800;51.972;5.682;2023-03-20T07:28:58;7.18;96.42
75217;HTU21D;63800;51.972;5.682;2023-03-20T07:31:26;6.87;97.20
75217;HTU21D;63800;51.972;5.682;2023-03-20T07:33:53;6.91;97.74
75217;HTU21D;63800;51.972;5.682;2023-03-20T07:36:18;7.07;96.45
75217;HTU21D;63800;51.972;5.682;2023-03-20T07:38:44;7.02;97.40
75217;HTU21D;63800;51.972;5.682;2023-03-20T07:41:10;6.87;98.26
75217;HTU21D;63800;51.972;5.682;2023-03-20T07:43:35;7.14;96.77
75217;HTU21D;63800;51.972;5.682;2023-03-20T07:46:02;7.10;96.90
75217;HTU21D;63800;51.972;5.682;2023-03-20T07:48:28;7.10;96.38
75217;HTU21D;63800;51.972;5.682;2023-03-20T07:50:53;7.03;96.58
75217;HTU21D;63800;51.972;5.682;2023-03-20T07:53:19;6.86;98.42
75217;HTU21D;63800;51.972;5.682;2023-03-20T07:55:44;6.98;96.97
75217;HTU21D;63800;51.972;5.682;2023-03-20T07:58:10;7.25;95.55
75217;HTU21D;63800;51.972;5.682;2023-03-20T08:00:36;7.05;95.72
75217;HTU21D;63800;51.972;5.682;2023-03-20T08:03:01;7.12;95.90
75217;HTU21D;63800;51.972;5.682;2023-03-20T08:05:27;7.17;95.18
75217;HTU21D;63800;51.972;5.682;2023-03-20T08:07:53;7.28;95.30
75217;HTU21D;63800;51.972;5.682;2023-03-20T08:10:18;7.16;95.65
75217;HTU21D;63800;51.972;5.682;2023-03-20T08:12:44;7.48;93.24
75217;HTU21D;63800;51.972;5.682;2023-03-20T08:15:09;7.29;94.49
75217;HTU21D;63800;51.972;5.682;2023-03-20T08:17:35;7.38;93.26
75217;HTU21D;63800;51.972;5.682;2023-03-20T08:20:00;7.28;93.98
75217;HTU21D;63800;51.972;5.682;2023-03-20T08:22:26;7.46;92.23
75217;HTU21D;63800;51.972;5.682;2023-03-20T08:24:51;7.41;93.07
75217;HTU21D;63800;51.972;5.682;2023-03-20T08:27:17;7.50;91.89
75217;HTU21D;63800;51.972;5.682;2023-03-20T08:29:42;7.65;91.15
75217;HTU21D;63800;51.972;5.682;2023-03-20T08:32:08;7.67;91.76
75217;HTU21D;63800;51.972;5.682;2023-03-20T08:34:33;7.70;91.28
75217;HTU21D;63800;51.972;5.682;2023-03-20T08:36:59;7.73;91.12
75217;HTU21D;63800;51.972;5.682;2023-03-20T08:39:24;7.73;90.20
75217;HTU21D;63800;51.972;5.682;2023-03-20T08:41:50;7.97;89.06
75217;HTU21D;63800;51.972;5.682;2023-03-20T08:44:15;7.75;89.90
75217;HTU21D;63800;51.972;5.682;2023-03-20T08:46:41;7.79;88.15
75217;HTU21D;63800;51.972;5.682;2023-03-20T08:49:08;7.86;88.16
75217;HTU21D;63800;51.972;5.682;2023-03-20T08:51:34;7.99;88.05
75217;HTU21D;63800;51.972;5.682;2023-03-20T08:53:59;8.07;88.25
75217;HTU21D;63800;51.972;5.682;2023-03-20T08:56:25;8.12;87.63
75217;HTU21D;63800;51.972;5.682;2023-03-20T08:58:50;8.21;86.80
75217;HTU21D;63800;51.972;5.682;2023-03-20T09:01:18;8.17;87.15
75217;HTU21D;63800;51.972;5.682;2023-03-20T09:03:44;8.05;86.80
75217;HTU21D;63800;51.972;5.682;2023-03-20T09:06:09;8.09;86.69
75217;HTU21D;63800;51.972;5.682;2023-03-20T09:08:35;8.33;85.64
75217;HTU21D;63800;51.972;5.682;2023-03-20T09:11:01;8.41;84.88
75217;HTU21D;63800;51.972;5.682;2023-03-20T09:13:26;8.31;85.94
75217;HTU21D;63800;51.972;5.682;2023-03-20T09:15:53;8.31;85.78
75217;HTU21D;63800;51.972;5.682;2023-03-20T09:18:19;8.12;86.63
75217;HTU21D;63800;51.972;5.682;2023-03-20T09:20:45;8.21;86.25
75217;HTU21D;63800;51.972;5.682;2023-03-20T09:23:11;8.17;86.87
75217;HTU21D;63800;51.972;5.682;2023-03-20T09:25:36;8.13;87.99
75217;HTU21D;63800;51.972;5.682;2023-03-20T09:28:02;8.15;90.12
75217;HTU21D;63800;51.972;5.682;2023-03-20T09:30:27;7.91;91.44
75217;HTU21D;63800;51.972;5.682;2023-03-20T09:32:53;8.08;91.43
75217;HTU21D;63800;51.972;5.682;2023-03-20T09:35:19;8.17;93.05
75217;HTU21D;63800;51.972;5.682;2023-03-20T09:37:45;8.34;92.78
75217;HTU21D;63800;51.972;5.682;2023-03-20T09:43:13;7.96;95.60
75217;HTU21D;63800;51.972;5.682;2023-03-20T09:54:03;8.02;94.49
75217;HTU21D;63800;51.972;5.682;2023-03-20T09:56:31;8.08;95.24
75217;HTU21D;63800;51.972;5.682;2023-03-20T09:58:59;8.27;95.23
75217;HTU21D;63800;51.972;5.682;2023-03-20T10:01:30;8.03;95.71
75217;HTU21D;63800;51.972;5.682;2023-03-20T10:03:59;8.60;93.72
75217;HTU21D;63800;51.972;5.682;2023-03-20T10:06:26;8.19;94.47
75217;HTU21D;63800;51.972;5.682;2023-03-20T10:08:51;8.20;95.54
75217;HTU21D;63800;51.972;5.682;2023-03-20T10:14:39;8.46;95.21
75217;HTU21D;63800;51.972;5.682;2023-03-20T10:22:49;8.37;90.43
75217;HTU21D;63800;51.972;5.682;2023-03-20T10:25:30;8.42;90.98
75217;HTU21D;63800;51.972;5.682;2023-03-20T10:33:11;8.64;91.88
75217;HTU21D;63800;51.972;5.682;2023-03-20T10:35:47;8.79;91.01
75217;HTU21D;63800;51.972;5.682;2023-03-20T10:40:55;8.62;89.92
75217;HTU21D;63800;51.972;5.682;2023-03-20T10:43:27;8.64;89.39
75217;HTU21D;63800;51.972;5.682;2023-03-20T10:46:24;8.61;89.50
75217;HTU21D;63800;51.972;5.682;2023-03-20T10:49:03;8.51;89.64
75217;HTU21D;63800;51.972;5.682;2023-03-20T10:52:21;8.51;89.02
75217;HTU21D;63800;51.972;5.682;2023-03-20T10:54:25;8.37;90.80
75217;HTU21D;63800;51.972;5.682;2023-03-20T10:56:54;8.35;88.70
75217;HTU21D;63800;51.972;5.682;2023-03-20T10:59:24;8.71;89.38
75217;HTU21D;63800;51.972;5.682;2023-03-20T11:01:51;8.66;91.09
75217;HTU21D;63800;51.972;5.682;2023-03-20T11:04:16;8.39;87.00
75217;HTU21D;63800;51.972;5.682;2023-03-20T11:06:48;8.35;87.94
75217;HTU21D;63800;51.972;5.682;2023-03-20T11:09:23;8.41;89.15
75217;HTU21D;63800;51.972;5.682;2023-03-20T11:11:55;8.52;90.76
75217;HTU21D;63800;51.972;5.682;2023-03-20T11:14:24;8.29;90.75
75217;HTU21D;63800;51.972;5.682;2023-03-20T11:16:52;8.27;92.34
75217;HTU21D;63800;51.972;5.682;2023-03-20T11:19:21;8.37;92.13
75217;HTU21D;63800;51.972;5.682;2023-03-20T11:21:54;8.47;92.14
75217;HTU21D;63800;51.972;5.682;2023-03-20T11:27:09;8.47;92.89
75217;HTU21D;63800;51.972;5.682;2023-03-20T11:29:36;8.42;89.96
75217;HTU21D;63800;51.972;5.682;2023-03-20T11:34:43;8.51;88.98
75217;HTU21D;63800;51.972;5.682;2023-03-20T11:37:25;8.57;90.01
75217;HTU21D;63800;51.972;5.682;2023-03-20T11:40:09;8.57;86.83
75217;HTU21D;63800;51.972;5.682;2023-03-20T11:42:38;8.66;89.33
75217;HTU21D;63800;51.972;5.682;2023-03-20T11:45:14;8.81;89.86
75217;HTU21D;63800;51.972;5.682;2023-03-20T11:47:40;8.93;89.89
75217;HTU21D;63800;51.972;5.682;2023-03-20T11:50:33;8.65;92.31
75217;HTU21D;63800;51.972;5.682;2023-03-20T11:53:16;8.53;91.07
75217;HTU21D;63800;51.972;5.682;2023-03-20T11:56:04;8.48;90.98
75217;HTU21D;63800;51.972;5.682;2023-03-20T11:58:31;8.36;93.59
75217;HTU21D;63800;51.972;5.682;2023-03-20T12:00:56;8.43;92.31
75217;HTU21D;63800;51.972;5.682;2023-03-20T12:03:50;8.44;92.31
75217;HTU21D;63800;51.972;5.682;2023-03-20T12:06:22;8.50;93.13
75217;HTU21D;63800;51.972;5.682;2023-03-20T12:09:02;8.64;92.44
75217;HTU21D;63800;51.972;5.682;2023-03-20T12:11:44;8.59;92.69
75217;HTU21D;63800;51.972;5.682;2023-03-20T12:14:26;8.59;93.56
75217;HTU21D;63800;51.972;5.682;2023-03-20T12:16:58;8.44;94.35
75217;HTU21D;63800;51.972;5.682;2023-03-20T12:19:28;8.49;94.46
75217;HTU21D;63800;51.972;5.682;2023-03-20T12:22:11;8.34;93.81
75217;HTU21D;63800;51.972;5.682;2023-03-20T12:24:44;8.46;95.50
75217;HTU21D;63800;51.972;5.682;2023-03-20T12:27:21;8.49;95.82
75217;HTU21D;63800;51.972;5.682;2023-03-20T12:29:51;8.47;94.14
75217;HTU21D;63800;51.972;5.682;2023-03-20T12:32:25;8.72;96.30
75217;HTU21D;63800;51.972;5.682;2023-03-20T12:34:57;8.65;98.39
75217;HTU21D;63800;51.972;5.682;2023-03-20T12:37:23;8.80;96.40
75217;HTU21D;63800;51.972;5.682;2023-03-20T12:39:57;8.78;97.02
75217;HTU21D;63800;51.972;5.682;2023-03-20T12:45:20;8.81;96.30
75217;HTU21D;63800;51.972;5.682;2023-03-20T12:47:52;8.86;96.81
75217;HTU21D;63800;51.972;5.682;2023-03-20T13:07:00;8.68;98.03
75217;HTU21D;63800;51.972;5.682;2023-03-20T13:20:56;8.63;97.92
75217;HTU21D;63800;51.972;5.682;2023-03-20T13:23:28;8.89;98.44
75217;HTU21D;63800;51.972;5.682;2023-03-20T13:26:10;9.01;95.88
75217;HTU21D;63800;51.972;5.682;2023-03-20T13:29:00;8.73;96.97
75217;HTU21D;63800;51.972;5.682;2023-03-20T13:31:52;8.80;99.19
75217;HTU21D;63800;51.972;5.682;2023-03-20T13:45:38;8.59;100.35
75217;HTU21D;63800;51.972;5.682;2023-03-20T13:56:15;8.49;100.47
75217;HTU21D;63800;51.972;5.682;2023-03-20T14:01:36;8.55;103.15
75217;HTU21D;63800;51.972;5.682;2023-03-20T14:04:04;8.78;102.60
75217;HTU21D;63800;51.972;5.682;2023-03-20T14:08:59;8.50;103.21
75217;HTU21D;63800;51.972;5.682;2023-03-20T14:11:27;8.63;101.59
75217;HTU21D;63800;51.972;5.682;2023-03-20T14:14:22;8.48;103.40
75217;HTU21D;63800;51.972;5.682;2023-03-20T14:16:59;8.59;105.28
75217;HTU21D;63800;51.972;5.682;2023-03-20T14:19:25;8.52;105.98
75217;HTU21D;63800;51.972;5.682;2023-03-20T14:21:55;8.78;103.50
75217;HTU21D;63800;51.972;5.682;2023-03-20T14:24:22;8.62;104.47
75217;HTU21D;63800;51.972;5.682;2023-03-20T14:26:51;8.80;105.07
75217;HTU21D;63800;51.972;5.682;2023-03-20T14:29:34;8.85;103.61
75217;HTU21D;63800;51.972;5.682;2023-03-20T14:34:45;8.70;105.37
75217;HTU21D;63800;51.972;5.682;2023-03-20T14:37:32;8.78;105.18
75217;HTU21D;63800;51.972;5.682;2023-03-20T14:40:16;8.70;104.83
75217;HTU21D;63800;51.972;5.682;2023-03-20T14:42:54;8.72;105.30
75217;HTU21D;63800;51.972;5.682;2023-03-20T14:45:42;8.60;106.09
75217;HTU21D;63800;51.972;5.682;2023-03-20T14:48:25;8.68;106.56
75217;HTU21D;63800;51.972;5.682;2023-03-20T14:53:39;8.74;106.17
75217;HTU21D;63800;51.972;5.682;2023-03-20T14:56:09;8.82;105.85
75217;HTU21D;63800;51.972;5.682;2023-03-20T14:58:48;8.86;104.61
75217;HTU21D;63800;51.972;5.682;2023-03-20T15:01:22;8.73;107.19
75217;HTU21D;63800;51.972;5.682;2023-03-20T15:03:57;8.94;106.57
75217;HTU21D;63800;51.972;5.682;2023-03-20T15:06:26;8.89;105.69
75217;HTU21D;63800;51.972;5.682;2023-03-20T15:08:55;8.75;105.25
75217;HTU21D;63800;51.972;5.682;2023-03-20T15:11:23;8.89;105.02
75217;HTU21D;63800;51.972;5.682;2023-03-20T15:13:49;8.98;105.33
75217;HTU21D;63800;51.972;5.682;2023-03-20T15:16:16;8.89;105.54
75217;HTU21D;63800;51.972;5.682;2023-03-20T15:18:50;8.81;105.53
75217;HTU21D;63800;51.972;5.682;2023-03-20T15:21:36;8.75;105.33
75217;HTU21D;63800;51.972;5.682;2023-03-20T15:24:02;8.48;108.41
75217;HTU21D;63800;51.972;5.682;2023-03-20T15:26:31;8.45;109.43
75217;HTU21D;63800;51.972;5.682;2023-03-20T15:29:10;8.33;110.74
75217;HTU21D;63800;51.972;5.682;2023-03-20T15:31:38;8.46;109.97
75217;HTU21D;63800;51.972;5.682;2023-03-20T15:34:21;8.41;110.00
75217;HTU21D;63800;51.972;5.682;2023-03-20T15:36:48;8.50;110.55
75217;HTU21D;63800;51.972;5.682;2023-03-20T15:39:18;8.43;111.58
75217;HTU21D;63800;51.972;5.682;2023-03-20T15:41:52;8.26;111.97
75217;HTU21D;63800;51.972;5.682;2023-03-20T15:44:25;8.30;112.16
75217;HTU21D;63800;51.972;5.682;2023-03-20T15:46:55;8.32;112.19
75217;HTU21D;63800;51.972;5.682;2023-03-20T15:49:21;8.39;111.86
75217;HTU21D;63800;51.972;5.682;2023-03-20T15:51:48;8.57;110.87
75217;HTU21D;63800;51.972;5.682;2023-03-20T15:54:15;8.50;111.45
75217;HTU21D;63800;51.972;5.682;2023-03-20T15:56:43;8.34;113.51
75217;HTU21D;63800;51.972;5.682;2023-03-20T15:59:13;8.15;115.48
75217;HTU21D;63800;51.972;5.682;2023-03-20T16:01:40;8.30;114.44
75217;HTU21D;63800;51.972;5.682;2023-03-20T16:04:06;8.47;113.38
75217;HTU21D;63800;51.972;5.682;2023-03-20T16:06:33;8.21;115.20
75217;HTU21D;63800;51.972;5.682;2023-03-20T16:09:01;8.31;115.02
75217;HTU21D;63800;51.972;5.682;2023-03-20T16:11:40;8.38;114.63
75217;HTU21D;63800;51.972;5.682;2023-03-20T16:14:12;8.48;114.37
75217;HTU21D;63800;51.972;5.682;2023-03-20T16:16:39;8.47;113.90
75217;HTU21D;63800;51.972;5.682;2023-03-20T16:19:11;8.53;112.10
75217;HTU21D;63800;51.972;5.682;2023-03-20T16:21:39;8.57;112.93
75217;HTU21D;63800;51.972;5.682;2023-03-20T16:24:07;8.64;111.44
75217;HTU21D;63800;51.972;5.682;2023-03-20T16:26:38;8.75;110.23
75217;HTU21D;63800;51.972;5.682;2023-03-20T16:29:04;8.64;111.29
75217;HTU21D;63800;51.972;5.682;2023-03-20T16:31:33;8.59;112.10
75217;HTU21D;63800;51.972;5.682;2023-03-20T16:34:04;8.59;110.73
75217;HTU21D;63800;51.972;5.682;2023-03-20T16:36:33;8.72;109.52
75217;HTU21D;63800;51.972;5.682;2023-03-20T16:39:19;8.60;110.41
75217;HTU21D;63800;51.972;5.682;2023-03-20T16:41:46;8.71;110.26
75217;HTU21D;63800;51.972;5.682;2023-03-20T16:44:19;8.76;110.58
75217;HTU21D;63800;51.972;5.682;2023-03-20T16:52:04;8.75;108.18
75217;HTU21D;63800;51.972;5.682;2023-03-20T16:54:36;8.76;107.82
75217;HTU21D;63800;51.972;5.682;2023-03-20T16:57:07;8.89;106.24
75217;HTU21D;63800;51.972;5.682;2023-03-20T16:59:37;8.92;105.66
75217;HTU21D;63800;51.972;5.682;2023-03-20T17:05:11;8.93;104.08
75217;HTU21D;63800;51.972;5.682;2023-03-20T17:07:37;8.91;104.15
75217;HTU21D;63800;51.972;5.682;2023-03-20T17:12:40;9.02;102.75
75217;HTU21D;63800;51.972;5.682;2023-03-20T17:15:12;9.01;103.63
75217;HTU21D;63800;51.972;5.682;2023-03-20T17:17:38;9.16;103.18
75217;HTU21D;63800;51.972;5.682;2023-03-20T17:20:04;9.08;103.69
75217;HTU21D;63800;51.972;5.682;2023-03-20T17:22:29;9.08;102.69
75217;HTU21D;63800;51.972;5.682;2023-03-20T17:24:55;9.01;103.82
75217;HTU21D;63800;51.972;5.682;2023-03-20T17:27:21;9.14;103.13
75217;HTU21D;63800;51.972;5.682;2023-03-20T17:29:48;9.10;104.18
75217;HTU21D;63800;51.972;5.682;2023-03-20T17:32:19;9.11;102.57
75217;HTU21D;63800;51.972;5.682;2023-03-20T17:34:45;9.18;102.22
75217;HTU21D;63800;51.972;5.682;2023-03-20T17:37:19;9.08;103.01
75217;HTU21D;63800;51.972;5.682;2023-03-20T17:39:46;9.14;103.09
75217;HTU21D;63800;51.972;5.682;2023-03-20T17:42:20;9.14;101.84
75217;HTU21D;63800;51.972;5.682;2023-03-20T17:44:47;9.18;101.62
75217;HTU21D;63800;51.972;5.682;2023-03-20T17:47:20;9.10;101.77
75217;HTU21D;63800;51.972;5.682;2023-03-20T17:49:46;9.23;102.18
75217;HTU21D;63800;51.972;5.682;2023-03-20T17:52:17;9.23;102.51
75217;HTU21D;63800;51.972;5.682;2023-03-20T17:54:44;9.23;102.81
75217;HTU21D;63800;51.972;5.682;2023-03-20T17:57:21;9.23;102.46
75217;HTU21D;63800;51.972;5.682;2023-03-20T17:59:48;9.17;101.96
75217;HTU21D;63800;51.972;5.682;2023-03-20T18:02:15;9.20;102.56
75217;HTU21D;63800;51.972;5.682;2023-03-20T18:04:43;9.14;102.71
75217;HTU21D;63800;51.972;5.682;2023-03-20T18:07:09;9.23;102.59
75217;HTU21D;63800;51.972;5.682;2023-03-20T18:09:34;9.27;102.40